10chiemaru — JD2376 — position and weather

sailwx.info

Track history (hours):
 
Tides and Currents Weather Stations Pressure Air Temp Water Temp Dewpoint Dewpoint Depression Visibility Wind Speed Wind Dir Waves Ship Positions

10chiemaru

Last reported at 2014-Sep-01 13:33 UTC. Time now 2014-Sep-01 14:01 UTC.
Position N 35°30' E 139°50'.

Length 72 m; draft 3.8 m.

Type: Ship. MMSI: 431000147.

Date/timePositionNaut miles runAvg speedWind from/ knotsBaromVisibWave heightAir tempDewpointWater temp
2014-Sep-01 13:33N 35°30' E 139°50'0 0.1
2014-Sep-01 12:33N 35°30' E 139°50'0 0.0
2014-Sep-01 11:33N 35°30' E 139°50'0 0.0
2014-Sep-01 10:33N 35°30' E 139°50'0 0.0
2014-Sep-01 09:33N 35°30' E 139°50'0 0.0
2014-Sep-01 08:33N 35°30' E 139°50'0 0.0
2014-Sep-01 07:34N 35°30' E 139°50'1010.2
2014-Sep-01 06:33N 35°38' E 139°59'3 3.1
2014-Sep-01 05:33N 35°41' E 139°56'0 0.0
2014-Sep-01 04:33N 35°41' E 139°56'0 0.0
2014-Sep-01 03:33N 35°41' E 139°56'0 0.0
2014-Sep-01 02:33N 35°41' E 139°56'0 0.0
2014-Sep-01 01:33N 35°41' E 139°56'3 3.4
2014-Sep-01 00:33N 35°38' E 139°59'4 4.5
2014-Aug-31 23:33N 35°34' E 139°55'0 0.0
2014-Aug-31 22:33N 35°34' E 139°55'0 0.0
2014-Aug-31 21:33N 35°34' E 139°55'0 0.0
2014-Aug-31 20:33N 35°34' E 139°55'0 0.0
2014-Aug-31 19:33N 35°34' E 139°55'0 0.0
2014-Aug-31 18:33N 35°34' E 139°55'0 0.0
2014-Aug-31 17:33N 35°34' E 139°55'6 5.7
2014-Aug-31 16:33N 35°29' E 139°52'1111.1
2014-Aug-31 15:33N 35°20' E 139°44'1010.0
2014-Aug-31 14:33N 35°10' E 139°46'1212.0
2014-Aug-31 13:33N 34°58' E 139°43'19 8.6
2014-Aug-31 11:22N 34°57' E 140°06'2711.9
2014-Aug-31 09:08N 35°14' E 140°31'1112.5
2014-Aug-31 08:18N 35°22' E 140°39'33 8.9
2014-Aug-31 04:33N 35°55' E 140°42'1 0.2
2014-Aug-30 23:09N 35°55' E 140°41'3 4.2
2014-Aug-30 22:32N 35°57' E 140°42'0 0.0
2014-Aug-30 21:30N 35°57' E 140°42'0 0.0
2014-Aug-30 20:33N 35°57' E 140°42'0 0.0
2014-Aug-30 19:33N 35°57' E 140°42'0 0.0
2014-Aug-30 18:33N 35°57' E 140°42'0 0.0
2014-Aug-30 17:33N 35°57' E 140°42'0 0.0
2014-Aug-30 16:33N 35°57' E 140°42'0 0.0
2014-Aug-30 15:21N 35°57' E 140°42'0 0.0
2014-Aug-30 14:28N 35°57' E 140°42'0 0.0
2014-Aug-30 13:33N 35°57' E 140°42'0 0.0
2014-Aug-30 12:25N 35°57' E 140°42'0 0.0
2014-Aug-30 11:33N 35°57' E 140°42'0 0.0
2014-Aug-30 10:25N 35°57' E 140°42'0 0.1
2014-Aug-30 09:33N 35°57' E 140°42'0 0.1
2014-Aug-30 08:24N 35°57' E 140°42'1 0.0
2014-Aug-29 04:20N 35°56' E 140°42'2 0.4
2014-Aug-28 23:33N 35°55' E 140°41'3 2.5
2014-Aug-28 22:33N 35°57' E 140°42'0 0.0
2014-Aug-28 21:33N 35°57' E 140°42'0 0.0
2014-Aug-28 20:33N 35°57' E 140°42'0 0.0
2014-Aug-28 19:33N 35°57' E 140°42'0 0.0
2014-Aug-28 18:33N 35°57' E 140°42'0 0.0
2014-Aug-28 17:33N 35°57' E 140°42'0 0.0
2014-Aug-28 16:33N 35°57' E 140°42'0 0.0
2014-Aug-28 15:33N 35°57' E 140°42'3 2.9
2014-Aug-28 14:33N 35°56' E 140°45'1211.7
2014-Aug-28 13:33N 35°46' E 140°54'2210.4
2014-Aug-28 11:24N 35°26' E 140°43'1311.4
2014-Aug-28 10:13N 35°16' E 140°32'1111.7
2014-Aug-28 09:16N 35°07' E 140°24'810.8
2014-Aug-28 08:33N 35°02' E 140°16'1110.9
2014-Aug-28 07:33N 34°56' E 140°05'1210.4
2014-Aug-28 06:26N 34°51' E 139°52'1011.0
2014-Aug-28 05:33N 34°58' E 139°43'1313.1
2014-Aug-28 04:34N 35°10' E 139°46'1312.7
2014-Aug-28 03:33N 35°23' E 139°42'6 5.5
2014-Aug-28 02:33N 35°28' E 139°40'0 0.0
2014-Aug-28 01:33N 35°28' E 139°40'0 0.0
2014-Aug-28 00:33N 35°28' E 139°40'0 0.0
2014-Aug-27 23:33N 35°28' E 139°40'3 2.8
2014-Aug-27 22:33N 35°26' E 139°43'3 2.9
2014-Aug-27 21:33N 35°24' E 139°45'0 0.0
2014-Aug-27 20:33N 35°24' E 139°45'0 0.0
2014-Aug-27 19:33N 35°24' E 139°45'0 0.0
2014-Aug-27 18:33N 35°24' E 139°45'0 0.0
2014-Aug-27 17:33N 35°24' E 139°45'0 0.0
2014-Aug-27 16:33N 35°24' E 139°45'0 0.0
2014-Aug-27 15:33N 35°24' E 139°45'0 0.0
2014-Aug-27 14:33N 35°24' E 139°45'0 0.0
2014-Aug-27 13:33N 35°24' E 139°45'0 0.0
2014-Aug-27 12:33N 35°24' E 139°45'0 0.0
2014-Aug-27 11:33N 35°24' E 139°45'0 0.0
2014-Aug-27 10:33N 35°24' E 139°45'0 0.0
2014-Aug-27 09:33N 35°24' E 139°45'0 0.0
2014-Aug-27 08:33N 35°24' E 139°45'6 5.5
2014-Aug-27 07:33N 35°28' E 139°50'1110.8
2014-Aug-27 06:34N 35°31' E 140°02'0 0.1
2014-Aug-27 05:33N 35°31' E 140°02'0 0.0
2014-Aug-27 04:33N 35°31' E 140°02'0 0.3
2014-Aug-27 03:33N 35°31' E 140°02'1111.5
2014-Aug-27 02:33N 35°30' E 139°48'2 1.9
2014-Aug-27 01:33N 35°31' E 139°46'0 0.0
2014-Aug-27 00:33N 35°31' E 139°46'2 1.8
2014-Aug-26 23:34N 35°30' E 139°48'9 8.9
2014-Aug-26 22:34N 35°35' E 139°57'6 5.9
2014-Aug-26 21:33N 35°41' E 139°59'0 0.0
2014-Aug-26 20:33N 35°41' E 139°59'0 0.0
2014-Aug-26 19:34N 35°41' E 139°59'0 0.0
2014-Aug-26 18:33N 35°41' E 139°59'0 0.0
2014-Aug-26 17:33N 35°41' E 139°59'0 0.0
2014-Aug-26 16:34N 35°41' E 139°59'0 0.0
2014-Aug-26 15:34N 35°41' E 139°59'0 0.0
2014-Aug-26 14:34N 35°41' E 139°59'0 0.0
2014-Aug-26 13:33N 35°41' E 139°59'0 0.0
2014-Aug-26 12:34N 35°41' E 139°59'0 0.0
2014-Aug-26 11:34N 35°41' E 139°59'0 0.0
2014-Aug-26 10:33N 35°41' E 139°59'0 0.0
2014-Aug-26 09:34N 35°41' E 139°59'0 0.0
2014-Aug-26 08:33N 35°41' E 139°59'1 1.5
2014-Aug-26 07:34N 35°39' E 139°59'1 1.2
2014-Aug-26 06:33N 35°39' E 139°58'1 1.5
2014-Aug-26 05:33N 35°41' E 139°56'0 0.0
2014-Aug-26 04:33N 35°41' E 139°56'0 0.0
2014-Aug-26 03:33N 35°41' E 139°56'0 0.0
2014-Aug-26 02:34N 35°41' E 139°56'0 0.0
2014-Aug-26 01:34N 35°41' E 139°56'5 4.5
2014-Aug-26 00:33N 35°36' E 139°57'2 2.0
2014-Aug-25 23:33N 35°35' E 139°55'0 0.0
2014-Aug-25 22:34N 35°35' E 139°55'0 0.0
2014-Aug-25 21:34N 35°35' E 139°55'0 0.0
2014-Aug-25 20:33N 35°35' E 139°55'3 2.6
2014-Aug-25 19:33N 35°32' E 139°54'1211.7
2014-Aug-25 18:34N 35°23' E 139°46'1111.0
2014-Aug-25 17:33N 35°12' E 139°47'1211.6
2014-Aug-25 16:33N 35°00' E 139°44'66 9.5
2014-Aug-25 09:33N 35°37' E 140°51'2210.4
2014-Aug-25 07:29N 35°58' E 140°43'3 0.6
2014-Aug-25 01:31N 35°55' E 140°41'5 4.7
2014-Aug-25 00:29N 35°59' E 140°43'0 0.1
2014-Aug-24 23:32N 35°59' E 140°43'0 0.0
2014-Aug-24 22:32N 35°59' E 140°43'0 0.1
2014-Aug-24 21:33N 35°59' E 140°43'0 0.0
2014-Aug-24 20:33N 35°59' E 140°43'0 0.0
2014-Aug-24 19:33N 35°59' E 140°43'0 0.0
2014-Aug-24 18:33N 35°59' E 140°43'0 0.0
2014-Aug-24 17:33N 35°59' E 140°43'0 0.0
2014-Aug-24 16:29N 35°59' E 140°43'0 0.0
2014-Aug-24 15:30N 35°59' E 140°43'0 0.0
2014-Aug-24 14:33N 35°59' E 140°43'0 0.0
2014-Aug-24 13:31N 35°59' E 140°43'0 0.0
2014-Aug-24 12:29N 35°59' E 140°43'0 0.0
2014-Aug-24 11:33N 35°59' E 140°43'0 0.0
2014-Aug-24 10:31N 35°59' E 140°43'3 0.8
2014-Aug-24 06:33N 35°56' E 140°42'2 1.6
2014-Aug-24 05:33N 35°55' E 140°41'0 0.0
2014-Aug-24 04:33N 35°55' E 140°41'0 0.0
2014-Aug-24 03:33N 35°55' E 140°41'0 0.0
2014-Aug-24 02:22N 35°55' E 140°41'0 0.0
2014-Aug-24 01:33N 35°55' E 140°41'0 0.1
2014-Aug-24 00:33N 35°55' E 140°41'0 0.0
2014-Aug-23 23:32N 35°55' E 140°41'2 2.3
2014-Aug-23 22:33N 35°57' E 140°42'0 0.0
2014-Aug-23 21:31N 35°57' E 140°42'0 0.0
2014-Aug-23 20:31N 35°57' E 140°42'43 2.1
2014-Aug-23 00:33N 35°15' E 140°32'1313.0
2014-Aug-22 23:33N 35°05' E 140°22'1313.2
2014-Aug-22 22:33N 34°58' E 140°08'1512.8
2014-Aug-22 21:23N 34°51' E 139°52'1113.0
2014-Aug-22 20:33N 34°51' E 139°39'1211.3
2014-Aug-22 19:30N 34°50' E 139°24'  
Track history (hours):
 
Tides and Currents Weather Stations Pressure Air Temp Water Temp Dewpoint Dewpoint Depression Visibility Wind Speed Wind Dir Waves Ship Positions

10chiemaru

Last reported at 2014-Sep-01 13:33 UTC. Time now 2014-Sep-01 14:01 UTC.
Position N 35°30' E 139°50'.

Length 72 m; draft 3.8 m.

Type: Ship. MMSI: 431000147.

Date/timePositionNaut miles runAvg speedWind from/ knotsBaromVisibWave heightAir tempDewpointWater temp
2014-Sep-01 13:33N 35°30' E 139°50'0 0.1
2014-Sep-01 12:33N 35°30' E 139°50'0 0.0
2014-Sep-01 11:33N 35°30' E 139°50'0 0.0
2014-Sep-01 10:33N 35°30' E 139°50'0 0.0
2014-Sep-01 09:33N 35°30' E 139°50'0 0.0
2014-Sep-01 08:33N 35°30' E 139°50'0 0.0
2014-Sep-01 07:34N 35°30' E 139°50'1010.2
2014-Sep-01 06:33N 35°38' E 139°59'3 3.1
2014-Sep-01 05:33N 35°41' E 139°56'0 0.0
2014-Sep-01 04:33N 35°41' E 139°56'0 0.0
2014-Sep-01 03:33N 35°41' E 139°56'0 0.0
2014-Sep-01 02:33N 35°41' E 139°56'0 0.0
2014-Sep-01 01:33N 35°41' E 139°56'3 3.4
2014-Sep-01 00:33N 35°38' E 139°59'4 4.5
2014-Aug-31 23:33N 35°34' E 139°55'0 0.0
2014-Aug-31 22:33N 35°34' E 139°55'0 0.0
2014-Aug-31 21:33N 35°34' E 139°55'0 0.0
2014-Aug-31 20:33N 35°34' E 139°55'0 0.0
2014-Aug-31 19:33N 35°34' E 139°55'0 0.0
2014-Aug-31 18:33N 35°34' E 139°55'0 0.0
2014-Aug-31 17:33N 35°34' E 139°55'6 5.7
2014-Aug-31 16:33N 35°29' E 139°52'1111.1
2014-Aug-31 15:33N 35°20' E 139°44'1010.0
2014-Aug-31 14:33N 35°10' E 139°46'1212.0
2014-Aug-31 13:33N 34°58' E 139°43'19 8.6
2014-Aug-31 11:22N 34°57' E 140°06'2711.9
2014-Aug-31 09:08N 35°14' E 140°31'1112.5
2014-Aug-31 08:18N 35°22' E 140°39'33 8.9
2014-Aug-31 04:33N 35°55' E 140°42'1 0.2
2014-Aug-30 23:09N 35°55' E 140°41'3 4.2
2014-Aug-30 22:32N 35°57' E 140°42'0 0.0
2014-Aug-30 21:30N 35°57' E 140°42'0 0.0
2014-Aug-30 20:33N 35°57' E 140°42'0 0.0
2014-Aug-30 19:33N 35°57' E 140°42'0 0.0
2014-Aug-30 18:33N 35°57' E 140°42'0 0.0
2014-Aug-30 17:33N 35°57' E 140°42'0 0.0
2014-Aug-30 16:33N 35°57' E 140°42'0 0.0
2014-Aug-30 15:21N 35°57' E 140°42'0 0.0
2014-Aug-30 14:28N 35°57' E 140°42'0 0.0
2014-Aug-30 13:33N 35°57' E 140°42'0 0.0
2014-Aug-30 12:25N 35°57' E 140°42'0 0.0
2014-Aug-30 11:33N 35°57' E 140°42'0 0.0
2014-Aug-30 10:25N 35°57' E 140°42'0 0.1
2014-Aug-30 09:33N 35°57' E 140°42'0 0.1
2014-Aug-30 08:24N 35°57' E 140°42'1 0.0
2014-Aug-29 04:20N 35°56' E 140°42'2 0.4
2014-Aug-28 23:33N 35°55' E 140°41'3 2.5
2014-Aug-28 22:33N 35°57' E 140°42'0 0.0
2014-Aug-28 21:33N 35°57' E 140°42'0 0.0
2014-Aug-28 20:33N 35°57' E 140°42'0 0.0
2014-Aug-28 19:33N 35°57' E 140°42'0 0.0
2014-Aug-28 18:33N 35°57' E 140°42'0 0.0
2014-Aug-28 17:33N 35°57' E 140°42'0 0.0
2014-Aug-28 16:33N 35°57' E 140°42'0 0.0
2014-Aug-28 15:33N 35°57' E 140°42'3 2.9
2014-Aug-28 14:33N 35°56' E 140°45'1211.7
2014-Aug-28 13:33N 35°46' E 140°54'2210.4
2014-Aug-28 11:24N 35°26' E 140°43'1311.4
2014-Aug-28 10:13N 35°16' E 140°32'1111.7
2014-Aug-28 09:16N 35°07' E 140°24'810.8
2014-Aug-28 08:33N 35°02' E 140°16'1110.9
2014-Aug-28 07:33N 34°56' E 140°05'1210.4
2014-Aug-28 06:26N 34°51' E 139°52'1011.0
2014-Aug-28 05:33N 34°58' E 139°43'1313.1
2014-Aug-28 04:34N 35°10' E 139°46'1312.7
2014-Aug-28 03:33N 35°23' E 139°42'6 5.5
2014-Aug-28 02:33N 35°28' E 139°40'0 0.0
2014-Aug-28 01:33N 35°28' E 139°40'0 0.0
2014-Aug-28 00:33N 35°28' E 139°40'0 0.0
2014-Aug-27 23:33N 35°28' E 139°40'3 2.8
2014-Aug-27 22:33N 35°26' E 139°43'3 2.9
2014-Aug-27 21:33N 35°24' E 139°45'0 0.0
2014-Aug-27 20:33N 35°24' E 139°45'0 0.0
2014-Aug-27 19:33N 35°24' E 139°45'0 0.0
2014-Aug-27 18:33N 35°24' E 139°45'0 0.0
2014-Aug-27 17:33N 35°24' E 139°45'0 0.0
2014-Aug-27 16:33N 35°24' E 139°45'0 0.0
2014-Aug-27 15:33N 35°24' E 139°45'0 0.0
2014-Aug-27 14:33N 35°24' E 139°45'0 0.0
2014-Aug-27 13:33N 35°24' E 139°45'0 0.0
2014-Aug-27 12:33N 35°24' E 139°45'0 0.0
2014-Aug-27 11:33N 35°24' E 139°45'0 0.0
2014-Aug-27 10:33N 35°24' E 139°45'0 0.0
2014-Aug-27 09:33N 35°24' E 139°45'0 0.0
2014-Aug-27 08:33N 35°24' E 139°45'6 5.5
2014-Aug-27 07:33N 35°28' E 139°50'1110.8
2014-Aug-27 06:34N 35°31' E 140°02'0 0.1
2014-Aug-27 05:33N 35°31' E 140°02'0 0.0
2014-Aug-27 04:33N 35°31' E 140°02'0 0.3
2014-Aug-27 03:33N 35°31' E 140°02'1111.5
2014-Aug-27 02:33N 35°30' E 139°48'2 1.9
2014-Aug-27 01:33N 35°31' E 139°46'0 0.0
2014-Aug-27 00:33N 35°31' E 139°46'2 1.8
2014-Aug-26 23:34N 35°30' E 139°48'9 8.9
2014-Aug-26 22:34N 35°35' E 139°57'6 5.9
2014-Aug-26 21:33N 35°41' E 139°59'0 0.0
2014-Aug-26 20:33N 35°41' E 139°59'0 0.0
2014-Aug-26 19:34N 35°41' E 139°59'0 0.0
2014-Aug-26 18:33N 35°41' E 139°59'0 0.0
2014-Aug-26 17:33N 35°41' E 139°59'0 0.0
2014-Aug-26 16:34N 35°41' E 139°59'0 0.0
2014-Aug-26 15:34N 35°41' E 139°59'0 0.0
2014-Aug-26 14:34N 35°41' E 139°59'0 0.0
2014-Aug-26 13:33N 35°41' E 139°59'0 0.0
2014-Aug-26 12:34N 35°41' E 139°59'0 0.0
2014-Aug-26 11:34N 35°41' E 139°59'0 0.0
2014-Aug-26 10:33N 35°41' E 139°59'0 0.0
2014-Aug-26 09:34N 35°41' E 139°59'0 0.0
2014-Aug-26 08:33N 35°41' E 139°59'1 1.5
2014-Aug-26 07:34N 35°39' E 139°59'1 1.2
2014-Aug-26 06:33N 35°39' E 139°58'1 1.5
2014-Aug-26 05:33N 35°41' E 139°56'0 0.0
2014-Aug-26 04:33N 35°41' E 139°56'0 0.0
2014-Aug-26 03:33N 35°41' E 139°56'0 0.0
2014-Aug-26 02:34N 35°41' E 139°56'0 0.0
2014-Aug-26 01:34N 35°41' E 139°56'5 4.5
2014-Aug-26 00:33N 35°36' E 139°57'2 2.0
2014-Aug-25 23:33N 35°35' E 139°55'0 0.0
2014-Aug-25 22:34N 35°35' E 139°55'0 0.0
2014-Aug-25 21:34N 35°35' E 139°55'0 0.0
2014-Aug-25 20:33N 35°35' E 139°55'3 2.6
2014-Aug-25 19:33N 35°32' E 139°54'1211.7
2014-Aug-25 18:34N 35°23' E 139°46'1111.0
2014-Aug-25 17:33N 35°12' E 139°47'1211.6
2014-Aug-25 16:33N 35°00' E 139°44'66 9.5
2014-Aug-25 09:33N 35°37' E 140°51'2210.4
2014-Aug-25 07:29N 35°58' E 140°43'3 0.6
2014-Aug-25 01:31N 35°55' E 140°41'5 4.7
2014-Aug-25 00:29N 35°59' E 140°43'0 0.1
2014-Aug-24 23:32N 35°59' E 140°43'0 0.0
2014-Aug-24 22:32N 35°59' E 140°43'0 0.1
2014-Aug-24 21:33N 35°59' E 140°43'0 0.0
2014-Aug-24 20:33N 35°59' E 140°43'0 0.0
2014-Aug-24 19:33N 35°59' E 140°43'0 0.0
2014-Aug-24 18:33N 35°59' E 140°43'0 0.0
2014-Aug-24 17:33N 35°59' E 140°43'0 0.0
2014-Aug-24 16:29N 35°59' E 140°43'0 0.0
2014-Aug-24 15:30N 35°59' E 140°43'0 0.0
2014-Aug-24 14:33N 35°59' E 140°43'0 0.0
2014-Aug-24 13:31N 35°59' E 140°43'0 0.0
2014-Aug-24 12:29N 35°59' E 140°43'0 0.0
2014-Aug-24 11:33N 35°59' E 140°43'0 0.0
2014-Aug-24 10:31N 35°59' E 140°43'3 0.8
2014-Aug-24 06:33N 35°56' E 140°42'2 1.6
2014-Aug-24 05:33N 35°55' E 140°41'0 0.0
2014-Aug-24 04:33N 35°55' E 140°41'0 0.0
2014-Aug-24 03:33N 35°55' E 140°41'0 0.0
2014-Aug-24 02:22N 35°55' E 140°41'0 0.0
2014-Aug-24 01:33N 35°55' E 140°41'0 0.1
2014-Aug-24 00:33N 35°55' E 140°41'0 0.0
2014-Aug-23 23:32N 35°55' E 140°41'2 2.3
2014-Aug-23 22:33N 35°57' E 140°42'0 0.0
2014-Aug-23 21:31N 35°57' E 140°42'0 0.0
2014-Aug-23 20:31N 35°57' E 140°42'43 2.1
2014-Aug-23 00:33N 35°15' E 140°32'1313.0
2014-Aug-22 23:33N 35°05' E 140°22'1313.2
2014-Aug-22 22:33N 34°58' E 140°08'1512.8
2014-Aug-22 21:23N 34°51' E 139°52'1113.0
2014-Aug-22 20:33N 34°51' E 139°39'1211.3
2014-Aug-22 19:30N 34°50' E 139°24'  

Dump ship's entire track history